sensor_id;sensor_type;location;lat;lon;timestamp;pressure;altitude;pressure_sealevel;temperature;humidity
19624;BME280;9959;49.798;9.928;2022-09-21T00:01:13;100407.22;;;6.48;100.00
19624;BME280;9959;49.798;9.928;2022-09-21T00:03:42;100410.19;;;6.45;100.00
19624;BME280;9959;49.798;9.928;2022-09-21T00:06:12;100401.53;;;6.44;100.00
19624;BME280;9959;49.798;9.928;2022-09-21T00:08:40;100402.28;;;6.30;100.00
19624;BME280;9959;49.798;9.928;2022-09-21T00:11:10;100406.06;;;6.27;100.00
19624;BME280;9959;49.798;9.928;2022-09-21T00:13:39;100406.34;;;6.32;100.00
19624;BME280;9959;49.798;9.928;2022-09-21T00:16:09;100398.16;;;6.35;100.00
19624;BME280;9959;49.798;9.928;2022-09-21T00:18:37;100409.03;;;6.24;100.00
19624;BME280;9959;49.798;9.928;2022-09-21T00:21:09;100412.97;;;6.20;100.00
19624;BME280;9959;49.798;9.928;2022-09-21T00:23:38;100405.94;;;6.12;100.00
19624;BME280;9959;49.798;9.928;2022-09-21T00:26:07;100408.09;;;6.17;100.00
19624;BME280;9959;49.798;9.928;2022-09-21T00:28:36;100410.13;;;5.98;100.00
19624;BME280;9959;49.798;9.928;2022-09-21T00:31:05;100412.22;;;5.95;100.00
19624;BME280;9959;49.798;9.928;2022-09-21T00:33:35;100416.00;;;6.00;100.00
19624;BME280;9959;49.798;9.928;2022-09-21T00:36:03;100417.81;;;5.91;100.00
19624;BME280;9959;49.798;9.928;2022-09-21T00:38:32;100414.84;;;5.95;100.00
19624;BME280;9959;49.798;9.928;2022-09-21T00:41:01;100415.69;;;5.95;100.00
19624;BME280;9959;49.798;9.928;2022-09-21T00:43:31;100416.03;;;5.92;100.00
19624;BME280;9959;49.798;9.928;2022-09-21T00:46:02;100404.44;;;5.86;100.00
19624;BME280;9959;49.798;9.928;2022-09-21T00:48:31;100416.50;;;5.87;100.00
19624;BME280;9959;49.798;9.928;2022-09-21T00:51:05;100410.78;;;5.92;100.00
19624;BME280;9959;49.798;9.928;2022-09-21T00:53:35;100420.41;;;5.91;100.00
19624;BME280;9959;49.798;9.928;2022-09-21T00:56:04;100419.28;;;5.94;100.00
19624;BME280;9959;49.798;9.928;2022-09-21T00:58:37;100400.63;;;5.97;100.00
19624;BME280;9959;49.798;9.928;2022-09-21T01:01:07;100417.13;;;6.06;100.00
19624;BME280;9959;49.798;9.928;2022-09-21T01:03:36;100415.38;;;5.98;100.00
19624;BME280;9959;49.798;9.928;2022-09-21T01:06:07;100416.16;;;5.99;100.00
19624;BME280;9959;49.798;9.928;2022-09-21T01:08:35;100419.09;;;5.96;100.00
19624;BME280;9959;49.798;9.928;2022-09-21T01:11:14;100422.88;;;6.01;100.00
19624;BME280;9959;49.798;9.928;2022-09-21T01:13:54;100428.75;;;6.03;100.00
19624;BME280;9959;49.798;9.928;2022-09-21T01:16:31;100431.66;;;6.08;100.00
19624;BME280;9959;49.798;9.928;2022-09-21T01:19:06;100432.81;;;6.06;100.00
19624;BME280;9959;49.798;9.928;2022-09-21T01:21:46;100424.19;;;5.97;100.00
19624;BME280;9959;49.798;9.928;2022-09-21T01:24:31;100428.09;;;5.93;100.00
19624;BME280;9959;49.798;9.928;2022-09-21T01:30:06;100432.34;;;5.94;100.00
19624;BME280;9959;49.798;9.928;2022-09-21T01:32:39;100434.66;;;5.89;100.00
19624;BME280;9959;49.798;9.928;2022-09-21T01:35:11;100445.63;;;5.84;100.00
19624;BME280;9959;49.798;9.928;2022-09-21T01:37:44;100436.50;;;5.80;100.00
19624;BME280;9959;49.798;9.928;2022-09-21T01:40:18;100440.22;;;5.94;100.00
19624;BME280;9959;49.798;9.928;2022-09-21T01:42:47;100443.63;;;5.95;100.00
19624;BME280;9959;49.798;9.928;2022-09-21T01:45:22;100446.31;;;5.86;100.00
19624;BME280;9959;49.798;9.928;2022-09-21T01:47:54;100450.34;;;5.89;100.00
19624;BME280;9959;49.798;9.928;2022-09-21T01:50:24;100452.81;;;5.90;100.00
19624;BME280;9959;49.798;9.928;2022-09-21T01:52:58;100442.03;;;5.94;100.00
19624;BME280;9959;49.798;9.928;2022-09-21T01:55:30;100450.84;;;6.01;100.00
19624;BME280;9959;49.798;9.928;2022-09-21T01:58:05;100443.28;;;6.14;100.00
19624;BME280;9959;49.798;9.928;2022-09-21T02:00:38;100444.97;;;5.99;100.00
19624;BME280;9959;49.798;9.928;2022-09-21T02:03:11;100448.81;;;5.63;100.00
19624;BME280;9959;49.798;9.928;2022-09-21T02:05:41;100445.19;;;5.72;100.00
19624;BME280;9959;49.798;9.928;2022-09-21T02:08:09;100447.13;;;5.79;100.00
19624;BME280;9959;49.798;9.928;2022-09-21T02:10:42;100445.69;;;5.68;100.00
19624;BME280;9959;49.798;9.928;2022-09-21T02:13:12;100446.31;;;5.86;100.00
19624;BME280;9959;49.798;9.928;2022-09-21T02:15:55;100447.78;;;5.81;100.00
19624;BME280;9959;49.798;9.928;2022-09-21T02:18:36;100444.38;;;5.72;100.00
19624;BME280;9959;49.798;9.928;2022-09-21T02:21:14;100439.00;;;5.65;100.00
19624;BME280;9959;49.798;9.928;2022-09-21T02:23:47;100436.00;;;5.85;100.00
19624;BME280;9959;49.798;9.928;2022-09-21T02:26:23;100434.34;;;5.92;100.00
19624;BME280;9959;49.798;9.928;2022-09-21T02:29:00;100436.84;;;5.69;100.00
19624;BME280;9959;49.798;9.928;2022-09-21T02:31:38;100429.06;;;5.44;100.00
19624;BME280;9959;49.798;9.928;2022-09-21T02:34:15;100429.22;;;5.43;100.00
19624;BME280;9959;49.798;9.928;2022-09-21T02:36:48;100429.75;;;5.38;100.00
19624;BME280;9959;49.798;9.928;2022-09-21T02:39:18;100424.69;;;5.20;100.00
19624;BME280;9959;49.798;9.928;2022-09-21T02:41:55;100438.72;;;5.35;100.00
19624;BME280;9959;49.798;9.928;2022-09-21T02:44:30;100438.38;;;5.47;100.00
19624;BME280;9959;49.798;9.928;2022-09-21T02:47:04;100442.66;;;5.31;100.00
19624;BME280;9959;49.798;9.928;2022-09-21T02:49:38;100450.53;;;5.23;100.00
19624;BME280;9959;49.798;9.928;2022-09-21T02:52:11;100454.44;;;5.27;100.00
19624;BME280;9959;49.798;9.928;2022-09-21T02:54:42;100458.53;;;5.21;100.00
19624;BME280;9959;49.798;9.928;2022-09-21T02:57:13;100449.53;;;5.24;100.00
19624;BME280;9959;49.798;9.928;2022-09-21T02:59:42;100448.25;;;4.87;100.00
19624;BME280;9959;49.798;9.928;2022-09-21T03:02:12;100440.56;;;5.02;100.00
19624;BME280;9959;49.798;9.928;2022-09-21T03:04:42;100442.50;;;5.08;100.00
19624;BME280;9959;49.798;9.928;2022-09-21T03:07:13;100439.25;;;4.98;100.00
19624;BME280;9959;49.798;9.928;2022-09-21T03:09:41;100436.66;;;5.06;100.00
19624;BME280;9959;49.798;9.928;2022-09-21T03:12:09;100443.19;;;5.02;100.00
19624;BME280;9959;49.798;9.928;2022-09-21T03:14:37;100438.59;;;5.12;100.00
19624;BME280;9959;49.798;9.928;2022-09-21T03:17:04;100441.00;;;5.38;100.00
19624;BME280;9959;49.798;9.928;2022-09-21T03:19:34;100440.19;;;5.38;100.00
19624;BME280;9959;49.798;9.928;2022-09-21T03:22:02;100442.47;;;5.33;100.00
19624;BME280;9959;49.798;9.928;2022-09-21T03:24:29;100452.44;;;5.54;100.00
19624;BME280;9959;49.798;9.928;2022-09-21T03:27:13;100444.91;;;5.51;100.00
19624;BME280;9959;49.798;9.928;2022-09-21T03:29:41;100460.09;;;5.55;100.00
19624;BME280;9959;49.798;9.928;2022-09-21T03:32:09;100454.25;;;5.53;100.00
19624;BME280;9959;49.798;9.928;2022-09-21T03:34:38;100459.13;;;5.56;100.00
19624;BME280;9959;49.798;9.928;2022-09-21T03:37:07;100466.53;;;5.36;100.00
19624;BME280;9959;49.798;9.928;2022-09-21T03:39:35;100462.88;;;5.70;100.00
19624;BME280;9959;49.798;9.928;2022-09-21T03:42:03;100455.03;;;5.62;100.00
19624;BME280;9959;49.798;9.928;2022-09-21T03:44:31;100466.91;;;5.89;100.00
19624;BME280;9959;49.798;9.928;2022-09-21T03:46:59;100462.28;;;5.91;100.00
19624;BME280;9959;49.798;9.928;2022-09-21T03:49:27;100472.13;;;5.89;100.00
19624;BME280;9959;49.798;9.928;2022-09-21T03:51:56;100466.28;;;5.71;100.00
19624;BME280;9959;49.798;9.928;2022-09-21T03:54:25;100465.31;;;5.72;100.00
19624;BME280;9959;49.798;9.928;2022-09-21T03:56:52;100472.66;;;5.77;100.00
19624;BME280;9959;49.798;9.928;2022-09-21T03:59:20;100480.88;;;5.57;100.00
19624;BME280;9959;49.798;9.928;2022-09-21T04:01:48;100477.09;;;5.68;100.00
19624;BME280;9959;49.798;9.928;2022-09-21T04:04:16;100479.56;;;5.61;100.00
19624;BME280;9959;49.798;9.928;2022-09-21T04:06:44;100482.50;;;5.58;100.00
19624;BME280;9959;49.798;9.928;2022-09-21T04:09:13;100480.56;;;5.52;100.00
19624;BME280;9959;49.798;9.928;2022-09-21T04:11:43;100488.25;;;5.53;100.00
19624;BME280;9959;49.798;9.928;2022-09-21T04:14:11;100482.00;;;5.54;100.00
19624;BME280;9959;49.798;9.928;2022-09-21T04:16:39;100484.81;;;5.36;100.00
19624;BME280;9959;49.798;9.928;2022-09-21T04:19:07;100483.97;;;5.61;100.00
19624;BME280;9959;49.798;9.928;2022-09-21T04:21:35;100489.22;;;5.52;100.00
19624;BME280;9959;49.798;9.928;2022-09-21T04:24:03;100491.34;;;5.41;100.00
19624;BME280;9959;49.798;9.928;2022-09-21T04:26:34;100498.38;;;5.40;100.00
19624;BME280;9959;49.798;9.928;2022-09-21T04:29:02;100491.06;;;5.27;100.00
19624;BME280;9959;49.798;9.928;2022-09-21T04:31:31;100491.53;;;5.39;100.00
19624;BME280;9959;49.798;9.928;2022-09-21T04:33:59;100492.81;;;5.60;100.00
19624;BME280;9959;49.798;9.928;2022-09-21T04:36:27;100491.16;;;5.59;100.00
19624;BME280;9959;49.798;9.928;2022-09-21T04:39:03;100495.06;;;5.71;100.00
19624;BME280;9959;49.798;9.928;2022-09-21T04:41:32;100500.50;;;5.45;100.00
19624;BME280;9959;49.798;9.928;2022-09-21T04:44:00;100488.53;;;5.67;100.00
19624;BME280;9959;49.798;9.928;2022-09-21T04:46:28;100486.59;;;5.52;100.00
19624;BME280;9959;49.798;9.928;2022-09-21T04:48:56;100492.81;;;5.51;100.00
19624;BME280;9959;49.798;9.928;2022-09-21T04:51:24;100494.13;;;5.47;100.00
19624;BME280;9959;49.798;9.928;2022-09-21T04:53:52;100502.94;;;5.54;100.00
19624;BME280;9959;49.798;9.928;2022-09-21T04:56:20;100496.25;;;5.52;100.00
19624;BME280;9959;49.798;9.928;2022-09-21T04:58:49;100500.47;;;5.53;100.00
19624;BME280;9959;49.798;9.928;2022-09-21T05:01:17;100500.84;;;5.42;100.00
19624;BME280;9959;49.798;9.928;2022-09-21T05:03:45;100501.31;;;5.37;100.00
19624;BME280;9959;49.798;9.928;2022-09-21T05:06:13;100501.94;;;5.64;100.00
19624;BME280;9959;49.798;9.928;2022-09-21T05:08:40;100505.53;;;5.79;100.00
19624;BME280;9959;49.798;9.928;2022-09-21T05:11:26;100518.78;;;5.69;100.00
19624;BME280;9959;49.798;9.928;2022-09-21T05:13:56;100513.09;;;5.49;100.00
19624;BME280;9959;49.798;9.928;2022-09-21T05:16:23;100518.78;;;5.61;100.00
19624;BME280;9959;49.798;9.928;2022-09-21T05:18:52;100510.78;;;5.63;100.00
19624;BME280;9959;49.798;9.928;2022-09-21T05:21:21;100517.34;;;5.34;100.00
19624;BME280;9959;49.798;9.928;2022-09-21T05:23:49;100519.16;;;5.33;100.00
19624;BME280;9959;49.798;9.928;2022-09-21T05:26:18;100519.66;;;5.29;100.00
19624;BME280;9959;49.798;9.928;2022-09-21T05:28:46;100522.25;;;5.45;100.00
19624;BME280;9959;49.798;9.928;2022-09-21T05:31:27;100522.09;;;5.30;100.00
19624;BME280;9959;49.798;9.928;2022-09-21T05:34:03;100527.13;;;5.56;100.00
19624;BME280;9959;49.798;9.928;2022-09-21T05:36:39;100536.78;;;5.56;100.00
19624;BME280;9959;49.798;9.928;2022-09-21T05:39:11;100535.31;;;5.45;100.00
19624;BME280;9959;49.798;9.928;2022-09-21T05:41:39;100537.94;;;5.37;100.00
19624;BME280;9959;49.798;9.928;2022-09-21T05:44:09;100543.81;;;5.47;100.00
19624;BME280;9959;49.798;9.928;2022-09-21T05:46:45;100543.16;;;5.53;100.00
19624;BME280;9959;49.798;9.928;2022-09-21T05:49:29;100547.72;;;5.60;100.00
19624;BME280;9959;49.798;9.928;2022-09-21T05:52:06;100550.00;;;5.71;100.00
19624;BME280;9959;49.798;9.928;2022-09-21T05:54:47;100546.72;;;5.69;100.00
19624;BME280;9959;49.798;9.928;2022-09-21T05:57:23;100546.72;;;5.77;100.00
19624;BME280;9959;49.798;9.928;2022-09-21T06:00:03;100548.72;;;5.67;100.00
19624;BME280;9959;49.798;9.928;2022-09-21T06:02:48;100552.28;;;5.74;100.00
19624;BME280;9959;49.798;9.928;2022-09-21T06:05:17;100550.34;;;5.68;100.00
19624;BME280;9959;49.798;9.928;2022-09-21T06:07:45;100551.16;;;5.85;100.00
19624;BME280;9959;49.798;9.928;2022-09-21T06:10:13;100552.13;;;5.92;100.00
19624;BME280;9959;49.798;9.928;2022-09-21T06:12:42;100557.34;;;5.92;100.00
19624;BME280;9959;49.798;9.928;2022-09-21T06:15:11;100556.53;;;6.08;100.00
19624;BME280;9959;49.798;9.928;2022-09-21T06:17:41;100549.56;;;6.32;100.00
19624;BME280;9959;49.798;9.928;2022-09-21T06:20:09;100557.63;;;6.22;100.00
19624;BME280;9959;49.798;9.928;2022-09-21T06:22:37;100565.13;;;6.25;100.00
19624;BME280;9959;49.798;9.928;2022-09-21T06:25:06;100563.22;;;6.11;100.00
19624;BME280;9959;49.798;9.928;2022-09-21T06:27:34;100564.16;;;6.26;100.00
19624;BME280;9959;49.798;9.928;2022-09-21T06:30:02;100566.22;;;6.47;100.00
19624;BME280;9959;49.798;9.928;2022-09-21T06:32:30;100565.91;;;6.34;100.00
19624;BME280;9959;49.798;9.928;2022-09-21T06:35:00;100569.22;;;6.19;100.00
19624;BME280;9959;49.798;9.928;2022-09-21T06:37:27;100557.50;;;6.07;100.00
19624;BME280;9959;49.798;9.928;2022-09-21T06:39:55;100561.44;;;6.11;100.00
19624;BME280;9959;49.798;9.928;2022-09-21T06:42:23;100557.94;;;6.19;100.00
19624;BME280;9959;49.798;9.928;2022-09-21T06:44:51;100559.41;;;6.30;100.00
19624;BME280;9959;49.798;9.928;2022-09-21T06:47:19;100563.28;;;6.34;100.00
19624;BME280;9959;49.798;9.928;2022-09-21T06:49:46;100567.34;;;6.53;99.47
19624;BME280;9959;49.798;9.928;2022-09-21T06:52:15;100561.38;;;6.67;99.30
19624;BME280;9959;49.798;9.928;2022-09-21T06:54:43;100568.78;;;6.87;97.48
19624;BME280;9959;49.798;9.928;2022-09-21T06:57:11;100570.81;;;6.76;96.68
19624;BME280;9959;49.798;9.928;2022-09-21T06:59:39;100559.97;;;6.80;98.56
19624;BME280;9959;49.798;9.928;2022-09-21T07:02:07;100569.97;;;6.84;97.31
19624;BME280;9959;49.798;9.928;2022-09-21T07:04:35;100573.19;;;6.94;97.74
19624;BME280;9959;49.798;9.928;2022-09-21T07:07:04;100562.13;;;7.07;97.95
19624;BME280;9959;49.798;9.928;2022-09-21T07:09:33;100577.44;;;7.19;94.84
19624;BME280;9959;49.798;9.928;2022-09-21T07:12:21;100570.22;;;6.98;96.67
19624;BME280;9959;49.798;9.928;2022-09-21T07:14:49;100565.69;;;6.91;96.85
19624;BME280;9959;49.798;9.928;2022-09-21T07:17:16;100567.97;;;7.18;96.53
19624;BME280;9959;49.798;9.928;2022-09-21T07:19:44;100571.22;;;7.20;96.34
19624;BME280;9959;49.798;9.928;2022-09-21T07:22:12;100570.84;;;7.00;94.56
19624;BME280;9959;49.798;9.928;2022-09-21T07:24:42;100575.28;;;7.45;94.67
19624;BME280;9959;49.798;9.928;2022-09-21T07:27:09;100579.66;;;7.53;92.74
19624;BME280;9959;49.798;9.928;2022-09-21T07:29:37;100582.28;;;7.91;91.92
19624;BME280;9959;49.798;9.928;2022-09-21T07:32:05;100579.72;;;7.83;90.86
19624;BME280;9959;49.798;9.928;2022-09-21T07:34:34;100583.06;;;7.77;91.84
19624;BME280;9959;49.798;9.928;2022-09-21T07:37:02;100582.38;;;7.98;90.73
19624;BME280;9959;49.798;9.928;2022-09-21T07:39:30;100586.44;;;7.86;91.73
19624;BME280;9959;49.798;9.928;2022-09-21T07:41:59;100590.03;;;7.70;93.58
19624;BME280;9959;49.798;9.928;2022-09-21T07:44:27;100585.44;;;7.87;92.40
19624;BME280;9959;49.798;9.928;2022-09-21T07:46:55;100584.09;;;7.91;91.17
19624;BME280;9959;49.798;9.928;2022-09-21T07:49:23;100589.69;;;7.50;92.45
19624;BME280;9959;49.798;9.928;2022-09-21T07:51:51;100590.41;;;7.96;91.28
19624;BME280;9959;49.798;9.928;2022-09-21T07:54:19;100597.16;;;8.29;89.04
19624;BME280;9959;49.798;9.928;2022-09-21T07:56:47;100577.31;;;8.56;88.14
19624;BME280;9959;49.798;9.928;2022-09-21T07:59:30;100584.59;;;8.91;85.67
19624;BME280;9959;49.798;9.928;2022-09-21T08:01:58;100583.00;;;8.60;86.54
19624;BME280;9959;49.798;9.928;2022-09-21T08:04:26;100583.25;;;8.80;86.83
19624;BME280;9959;49.798;9.928;2022-09-21T08:06:54;100588.16;;;9.05;86.29
19624;BME280;9959;49.798;9.928;2022-09-21T08:09:22;100590.19;;;9.24;84.35
19624;BME280;9959;49.798;9.928;2022-09-21T08:11:50;100592.81;;;9.02;85.85
19624;BME280;9959;49.798;9.928;2022-09-21T08:14:18;100593.44;;;9.05;85.40
19624;BME280;9959;49.798;9.928;2022-09-21T08:16:53;100598.44;;;9.86;81.04
19624;BME280;9959;49.798;9.928;2022-09-21T08:19:21;100587.63;;;9.09;84.18
19624;BME280;9959;49.798;9.928;2022-09-21T08:21:51;100600.53;;;9.47;81.82
19624;BME280;9959;49.798;9.928;2022-09-21T08:24:23;100592.25;;;9.29;83.49
19624;BME280;9959;49.798;9.928;2022-09-21T08:26:52;100592.19;;;9.65;82.63
19624;BME280;9959;49.798;9.928;2022-09-21T08:29:23;100591.00;;;9.46;82.13
19624;BME280;9959;49.798;9.928;2022-09-21T08:31:52;100591.91;;;9.82;81.18
19624;BME280;9959;49.798;9.928;2022-09-21T08:34:20;100591.44;;;10.00;80.86
19624;BME280;9959;49.798;9.928;2022-09-21T08:36:49;100597.50;;;9.72;81.22
19624;BME280;9959;49.798;9.928;2022-09-21T08:39:21;100601.72;;;10.30;79.40
19624;BME280;9959;49.798;9.928;2022-09-21T08:42:07;100600.81;;;9.52;82.81
19624;BME280;9959;49.798;9.928;2022-09-21T08:44:38;100607.09;;;9.80;83.14
19624;BME280;9959;49.798;9.928;2022-09-21T08:47:12;100608.97;;;10.21;79.77
19624;BME280;9959;49.798;9.928;2022-09-21T08:49:46;100608.69;;;9.52;82.44
19624;BME280;9959;49.798;9.928;2022-09-21T08:52:17;100614.72;;;8.88;84.55
19624;BME280;9959;49.798;9.928;2022-09-21T08:54:50;100612.03;;;9.40;83.79
19624;BME280;9959;49.798;9.928;2022-09-21T08:57:20;100611.53;;;9.51;83.87
19624;BME280;9959;49.798;9.928;2022-09-21T08:59:49;100607.28;;;10.35;80.04
19624;BME280;9959;49.798;9.928;2022-09-21T09:02:30;100603.09;;;10.19;80.24
19624;BME280;9959;49.798;9.928;2022-09-21T09:05:06;100604.44;;;10.08;81.06
19624;BME280;9959;49.798;9.928;2022-09-21T09:07:54;100606.34;;;10.98;77.00
19624;BME280;9959;49.798;9.928;2022-09-21T09:10:35;100604.66;;;10.35;79.59
19624;BME280;9959;49.798;9.928;2022-09-21T09:13:29;100610.47;;;11.54;75.01
19624;BME280;9959;49.798;9.928;2022-09-21T09:16:08;100603.56;;;11.39;74.13
19624;BME280;9959;49.798;9.928;2022-09-21T09:18:44;100605.41;;;11.66;73.54
19624;BME280;9959;49.798;9.928;2022-09-21T09:21:19;100603.78;;;12.05;71.19
19624;BME280;9959;49.798;9.928;2022-09-21T09:23:59;100615.50;;;12.42;69.73
19624;BME280;9959;49.798;9.928;2022-09-21T09:26:35;100611.47;;;12.20;71.82
19624;BME280;9959;49.798;9.928;2022-09-21T09:29:14;100608.84;;;11.86;71.99
19624;BME280;9959;49.798;9.928;2022-09-21T09:31:45;100616.81;;;12.06;70.76
19624;BME280;9959;49.798;9.928;2022-09-21T09:34:18;100611.31;;;12.73;68.89
19624;BME280;9959;49.798;9.928;2022-09-21T09:36:51;100610.44;;;12.34;70.09
19624;BME280;9959;49.798;9.928;2022-09-21T09:39:27;100616.59;;;12.80;68.95
19624;BME280;9959;49.798;9.928;2022-09-21T09:42:16;100611.56;;;13.04;67.82
19624;BME280;9959;49.798;9.928;2022-09-21T09:45:07;100610.19;;;13.65;66.04
19624;BME280;9959;49.798;9.928;2022-09-21T09:47:47;100604.22;;;12.74;68.34
19624;BME280;9959;49.798;9.928;2022-09-21T09:50:26;100599.47;;;13.53;65.46
19624;BME280;9959;49.798;9.928;2022-09-21T09:52:58;100596.88;;;13.46;65.59
19624;BME280;9959;49.798;9.928;2022-09-21T09:55:35;100594.88;;;12.64;68.71
19624;BME280;9959;49.798;9.928;2022-09-21T09:58:06;100602.06;;;12.96;67.06
19624;BME280;9959;49.798;9.928;2022-09-21T10:00:40;100594.06;;;13.41;66.00
19624;BME280;9959;49.798;9.928;2022-09-21T10:03:15;100589.19;;;13.38;66.26
19624;BME280;9959;49.798;9.928;2022-09-21T10:05:45;100587.44;;;14.01;64.84
19624;BME280;9959;49.798;9.928;2022-09-21T10:08:37;100587.00;;;14.04;65.43
19624;BME280;9959;49.798;9.928;2022-09-21T10:11:08;100590.41;;;14.30;63.62
19624;BME280;9959;49.798;9.928;2022-09-21T10:13:37;100585.41;;;14.89;61.97
19624;BME280;9959;49.798;9.928;2022-09-21T10:16:11;100582.19;;;15.29;61.19
19624;BME280;9959;49.798;9.928;2022-09-21T10:18:44;100586.28;;;14.52;63.60
19624;BME280;9959;49.798;9.928;2022-09-21T10:21:18;100571.56;;;13.50;65.53
19624;BME280;9959;49.798;9.928;2022-09-21T10:23:48;100577.50;;;14.15;64.43
19624;BME280;9959;49.798;9.928;2022-09-21T10:26:18;100573.50;;;14.61;63.40
19624;BME280;9959;49.798;9.928;2022-09-21T10:28:57;100579.19;;;14.46;63.67
19624;BME280;9959;49.798;9.928;2022-09-21T10:31:26;100570.19;;;14.29;63.55
19624;BME280;9959;49.798;9.928;2022-09-21T10:34:06;100561.13;;;15.04;61.45
19624;BME280;9959;49.798;9.928;2022-09-21T10:36:40;100555.44;;;15.90;58.95
19624;BME280;9959;49.798;9.928;2022-09-21T10:39:20;100552.78;;;15.54;58.26
19624;BME280;9959;49.798;9.928;2022-09-21T10:41:50;100548.84;;;15.69;57.99
19624;BME280;9959;49.798;9.928;2022-09-21T10:44:20;100551.97;;;16.54;54.70
19624;BME280;9959;49.798;9.928;2022-09-21T10:46:49;100553.59;;;15.90;56.84
19624;BME280;9959;49.798;9.928;2022-09-21T10:49:23;100548.25;;;15.55;56.75
19624;BME280;9959;49.798;9.928;2022-09-21T10:51:56;100551.84;;;16.08;53.96
19624;BME280;9959;49.798;9.928;2022-09-21T10:54:26;100550.44;;;16.17;55.04
19624;BME280;9959;49.798;9.928;2022-09-21T10:56:59;100550.88;;;16.95;53.22
19624;BME280;9959;49.798;9.928;2022-09-21T10:59:29;100543.56;;;15.81;56.56
19624;BME280;9959;49.798;9.928;2022-09-21T11:01:58;100544.13;;;15.83;55.57
19624;BME280;9959;49.798;9.928;2022-09-21T11:04:32;100543.03;;;15.60;55.18
19624;BME280;9959;49.798;9.928;2022-09-21T11:07:11;100541.94;;;17.19;51.93
19624;BME280;9959;49.798;9.928;2022-09-21T11:09:44;100541.19;;;17.57;49.26
19624;BME280;9959;49.798;9.928;2022-09-21T11:12:32;100542.81;;;17.58;50.21
19624;BME280;9959;49.798;9.928;2022-09-21T11:15:13;100536.28;;;17.49;51.86
19624;BME280;9959;49.798;9.928;2022-09-21T11:17:47;100537.47;;;16.61;52.51
19624;BME280;9959;49.798;9.928;2022-09-21T11:20:25;100539.34;;;16.49;52.45
19624;BME280;9959;49.798;9.928;2022-09-21T11:23:01;100542.66;;;17.48;50.88
19624;BME280;9959;49.798;9.928;2022-09-21T11:25:34;100550.72;;;17.02;51.30
19624;BME280;9959;49.798;9.928;2022-09-21T11:28:15;100535.94;;;17.62;49.82
19624;BME280;9959;49.798;9.928;2022-09-21T11:31:07;100531.50;;;18.07;47.73
19624;BME280;9959;49.798;9.928;2022-09-21T11:33:50;100528.69;;;18.41;48.08
19624;BME280;9959;49.798;9.928;2022-09-21T11:36:30;100525.88;;;18.53;47.64
19624;BME280;9959;49.798;9.928;2022-09-21T11:39:09;100517.03;;;19.39;45.50
19624;BME280;9959;49.798;9.928;2022-09-21T11:41:54;100521.94;;;18.61;46.38
19624;BME280;9959;49.798;9.928;2022-09-21T11:44:41;100517.84;;;19.40;43.15
19624;BME280;9959;49.798;9.928;2022-09-21T11:47:20;100523.41;;;17.63;46.69
19624;BME280;9959;49.798;9.928;2022-09-21T11:50:07;100516.56;;;19.53;44.05
19624;BME280;9959;49.798;9.928;2022-09-21T11:53:10;100507.66;;;18.99;45.77
19624;BME280;9959;49.798;9.928;2022-09-21T11:56:01;100518.78;;;20.14;42.33
19624;BME280;9959;49.798;9.928;2022-09-21T11:58:37;100503.75;;;18.58;45.41
19624;BME280;9959;49.798;9.928;2022-09-21T12:01:19;100504.25;;;19.52;43.47
19624;BME280;9959;49.798;9.928;2022-09-21T12:04:04;100503.56;;;18.37;45.14
19624;BME280;9959;49.798;9.928;2022-09-21T12:06:42;100501.00;;;17.81;46.76
19624;BME280;9959;49.798;9.928;2022-09-21T12:09:24;100501.34;;;20.06;41.44
19624;BME280;9959;49.798;9.928;2022-09-21T12:12:06;100490.91;;;20.00;41.15
19624;BME280;9959;49.798;9.928;2022-09-21T12:14:41;100486.53;;;21.24;37.46
19624;BME280;9959;49.798;9.928;2022-09-21T12:17:15;100491.88;;;21.29;38.05
19624;BME280;9959;49.798;9.928;2022-09-21T12:19:53;100499.63;;;20.53;38.84
19624;BME280;9959;49.798;9.928;2022-09-21T12:22:29;100497.78;;;21.31;37.56
19624;BME280;9959;49.798;9.928;2022-09-21T12:25:02;100491.88;;;21.24;37.84
19624;BME280;9959;49.798;9.928;2022-09-21T12:27:37;100487.00;;;19.70;38.06
19624;BME280;9959;49.798;9.928;2022-09-21T12:30:10;100488.09;;;20.58;36.72
19624;BME280;9959;49.798;9.928;2022-09-21T12:32:46;100490.03;;;20.99;34.50
19624;BME280;9959;49.798;9.928;2022-09-21T12:35:23;100487.06;;;19.00;37.44
19624;BME280;9959;49.798;9.928;2022-09-21T12:37:56;100483.56;;;20.63;35.75
19624;BME280;9959;49.798;9.928;2022-09-21T12:40:32;100479.03;;;21.00;34.86
19624;BME280;9959;49.798;9.928;2022-09-21T12:43:12;100472.81;;;22.16;30.31
19624;BME280;9959;49.798;9.928;2022-09-21T12:45:46;100473.91;;;21.24;32.20
19624;BME280;9959;49.798;9.928;2022-09-21T12:48:23;100470.34;;;20.16;33.54
19624;BME280;9959;49.798;9.928;2022-09-21T12:50:55;100479.41;;;20.04;34.72
19624;BME280;9959;49.798;9.928;2022-09-21T12:53:33;100472.38;;;19.83;35.26
19624;BME280;9959;49.798;9.928;2022-09-21T12:56:05;100481.72;;;20.79;33.85
19624;BME280;9959;49.798;9.928;2022-09-21T12:58:59;100468.84;;;20.71;34.05
19624;BME280;9959;49.798;9.928;2022-09-21T13:01:33;100468.09;;;19.92;35.31
19624;BME280;9959;49.798;9.928;2022-09-21T13:04:18;100463.72;;;19.70;35.17
19624;BME280;9959;49.798;9.928;2022-09-21T13:09:56;100445.28;;;20.99;33.93
19624;BME280;9959;49.798;9.928;2022-09-21T13:12:26;100451.38;;;20.58;34.06
19624;BME280;9959;49.798;9.928;2022-09-21T13:15:03;100447.34;;;21.54;33.09
19624;BME280;9959;49.798;9.928;2022-09-21T13:17:32;100440.44;;;21.06;33.48
19624;BME280;9959;49.798;9.928;2022-09-21T13:20:03;100447.38;;;20.61;33.83
19624;BME280;9959;49.798;9.928;2022-09-21T13:22:33;100440.31;;;19.45;35.74
19624;BME280;9959;49.798;9.928;2022-09-21T13:25:05;100445.09;;;19.91;35.48
19624;BME280;9959;49.798;9.928;2022-09-21T13:28:01;100435.59;;;18.82;37.58
19624;BME280;9959;49.798;9.928;2022-09-21T13:30:35;100438.25;;;20.47;34.55
19624;BME280;9959;49.798;9.928;2022-09-21T13:36:04;100433.22;;;20.81;34.75
19624;BME280;9959;49.798;9.928;2022-09-21T13:38:56;100430.13;;;21.49;33.19
19624;BME280;9959;49.798;9.928;2022-09-21T13:41:30;100429.72;;;20.86;33.85